Time;durP1;ratioP1;P1;durP2;ratioP2;P2;SDS_P1;SDS_P2;PMS_P1;PMS_P2;Temp;Humidity;BMP_temperature;BMP_pressure;BME280_temperature;BME280_humidity;BME280_pressure;Samples;Min_cycle;Max_cycle;Signal;HPM_P1;HPM_P2
2022/12/23 00:00:15;;;;;;;1.80;0.85;;;;;;;;;;5053141;28;20406;-84
2022/12/23 00:02:41;;;;;;;2.28;0.80;;;;;;;;;;5053666;28;20408;-84
2022/12/23 00:05:08;;;;;;;1.58;0.60;;;;;;;;;;5053702;28;20373;-83
2022/12/23 00:07:34;;;;;;;1.70;0.80;;;;;;;;;;5053556;28;20435;-83
2022/12/23 00:10:00;;;;;;;2.03;0.77;;;;;;;;;;5053504;28;20378;-83
2022/12/23 00:15:11;;;;;;;1.23;0.70;;;;;;;;;;5053605;28;20386;-84
2022/12/23 00:17:40;;;;;;;1.27;0.80;;;;;;;;;;5053362;28;20504;-83
2022/12/23 00:20:06;;;;;;;1.70;0.52;;;;;;;;;;5053279;28;20377;-83
2022/12/23 00:25:17;;;;;;;1.42;0.50;;;;;;;;;;5051549;28;21175;-83
2022/12/23 00:28:00;;;;;;;2.50;0.63;;;;;;;;;;5052283;28;20392;-83
2022/12/23 00:30:26;;;;;;;1.05;0.55;;;;;;;;;;5051760;28;20385;-83
2022/12/23 00:32:52;;;;;;;0.93;0.50;;;;;;;;;;5052636;28;20816;-83
2022/12/23 00:35:18;;;;;;;1.00;0.70;;;;;;;;;;5052196;28;20464;-83
2022/12/23 00:37:44;;;;;;;1.00;0.52;;;;;;;;;;5051205;28;20413;-84
2022/12/23 00:42:58;;;;;;;1.52;0.90;;;;;;;;;;5052232;28;20365;-84
2022/12/23 00:45:24;;;;;;;1.10;0.60;;;;;;;;;;5050995;28;20381;-84
2022/12/23 00:50:35;;;;;;;1.00;0.73;;;;;;;;;;5047883;28;20461;-84
2022/12/23 00:53:01;;;;;;;1.55;1.00;;;;;;;;;;5052531;28;20384;-84
2022/12/23 00:55:27;;;;;;;1.70;0.98;;;;;;;;;;5052754;28;20389;-84
2022/12/23 00:57:53;;;;;;;1.60;0.73;;;;;;;;;;5052578;28;20413;-84
2022/12/23 01:05:35;;;;;;;1.15;0.50;;;;;;;;;;5051752;28;20791;-84
2022/12/23 01:05:50;;;;;;;1.30;0.50;;;;;;;;;;5052148;28;20412;-84
2022/12/23 01:08:16;;;;;;;1.40;0.50;;;;;;;;;;5052273;28;20412;-84
2022/12/23 01:10:42;;;;;;;1.00;0.60;;;;;;;;;;5051852;28;20389;-84
2022/12/23 01:13:07;;;;;;;0.90;0.50;;;;;;;;;;5042686;28;20385;-84
2022/12/23 01:15:33;;;;;;;0.75;0.47;;;;;;;;;;5052385;28;20517;-83
2022/12/23 01:17:59;;;;;;;1.23;0.50;;;;;;;;;;5052243;28;20405;-84
2022/12/23 01:20:25;;;;;;;0.90;0.50;;;;;;;;;;5052151;28;20814;-84
2022/12/23 01:22:51;;;;;;;0.93;0.73;;;;;;;;;;5052191;28;20383;-84
2022/12/23 01:25:17;;;;;;;0.70;0.60;;;;;;;;;;5051143;28;20928;-84
2022/12/23 01:27:43;;;;;;;1.45;1.00;;;;;;;;;;5049992;28;20415;-83
2022/12/23 01:30:09;;;;;;;2.08;1.60;;;;;;;;;;5050969;28;20795;-84
2022/12/23 01:32:35;;;;;;;3.70;2.70;;;;;;;;;;5051609;28;20384;-84
2022/12/23 01:35:01;;;;;;;2.20;1.60;;;;;;;;;;5051744;28;20747;-83
2022/12/23 01:37:27;;;;;;;2.80;1.45;;;;;;;;;;5051965;28;20413;-84
2022/12/23 01:39:53;;;;;;;2.47;1.70;;;;;;;;;;5051694;28;20411;-83
2022/12/23 01:45:28;;;;;;;1.77;1.10;;;;;;;;;;5051914;28;20373;-84
2022/12/23 01:47:54;;;;;;;2.03;1.30;;;;;;;;;;5033998;28;20387;-83
2022/12/23 01:50:26;;;;;;;1.52;1.02;;;;;;;;;;5045460;28;20392;-84
2022/12/23 01:53:01;;;;;;;1.38;0.95;;;;;;;;;;5051735;28;20389;-84
2022/12/23 01:55:28;;;;;;;1.38;0.82;;;;;;;;;;5051758;28;20377;-84
2022/12/23 01:57:57;;;;;;;1.67;0.50;;;;;;;;;;5050816;28;20405;-84
2022/12/23 02:05:52;;;;;;;0.50;0.40;;;;;;;;;;5051659;28;20369;-83
2022/12/23 02:11:14;;;;;;;0.20;0.20;;;;;;;;;;5051904;28;20373;-84
2022/12/23 02:16:41;;;;;;;0.40;0.30;;;;;;;;;;5051553;28;20467;-84
2022/12/23 02:19:13;;;;;;;0.80;0.60;;;;;;;;;;5051417;28;20381;-84
2022/12/23 02:21:58;;;;;;;0.30;0.30;;;;;;;;;;5051489;28;20405;-84
2022/12/23 02:24:30;;;;;;;1.30;0.90;;;;;;;;;;5051367;28;20704;-84
2022/12/23 02:27:02;;;;;;;0.50;0.40;;;;;;;;;;5049949;28;20461;-84
2022/12/23 02:29:46;;;;;;;1.30;0.40;;;;;;;;;;5047356;28;20389;-84
2022/12/23 02:32:16;;;;;;;0.73;0.43;;;;;;;;;;5050771;28;20378;-84
2022/12/23 02:34:51;;;;;;;1.13;0.38;;;;;;;;;;5050961;28;20916;-84
2022/12/23 02:37:26;;;;;;;0.55;0.40;;;;;;;;;;5051205;28;20405;-84
2022/12/23 02:40:10;;;;;;;2.05;0.40;;;;;;;;;;5051234;28;20803;-84
2022/12/23 02:42:40;;;;;;;1.67;1.17;;;;;;;;;;5027667;28;20388;-84
2022/12/23 02:45:08;;;;;;;1.40;0.70;;;;;;;;;;5044078;28;20839;-83
2022/12/23 02:47:37;;;;;;;1.02;0.50;;;;;;;;;;5038583;28;20456;-84
2022/12/23 02:50:08;;;;;;;0.70;0.30;;;;;;;;;;5041304;28;20381;-84
2022/12/23 02:52:35;;;;;;;1.50;0.77;;;;;;;;;;5050080;28;20475;-84
2022/12/23 02:55:05;;;;;;;0.68;0.47;;;;;;;;;;5051228;28;20862;-84
2022/12/23 02:57:35;;;;;;;0.70;0.40;;;;;;;;;;5051048;28;20421;-84
2022/12/23 03:00:02;;;;;;;0.82;0.30;;;;;;;;;;5050934;28;20418;-83
2022/12/23 03:02:29;;;;;;;0.70;0.30;;;;;;;;;;5051106;28;20460;-84
2022/12/23 03:04:55;;;;;;;0.47;0.32;;;;;;;;;;5045165;28;20874;-84
2022/12/23 03:07:31;;;;;;;0.20;0.20;;;;;;;;;;5051146;28;20393;-84
2022/12/23 03:09:57;;;;;;;0.10;0.10;;;;;;;;;;5054021;28;20438;-83
2022/12/23 03:12:46;;;;;;;0.40;0.20;;;;;;;;;;5054765;28;20758;-83
2022/12/23 03:15:31;;;;;;;0.35;0.20;;;;;;;;;;5054719;28;20423;-84
2022/12/23 03:18:16;;;;;;;0.20;0.20;;;;;;;;;;5054514;28;20439;-83
2022/12/23 03:20:46;;;;;;;0.25;0.20;;;;;;;;;;5054513;28;20409;-84
2022/12/23 03:23:12;;;;;;;0.52;0.30;;;;;;;;;;5036824;28;20390;-84
2022/12/23 03:25:42;;;;;;;0.40;0.20;;;;;;;;;;5054459;28;20439;-84
2022/12/23 03:28:31;;;;;;;0.50;0.20;;;;;;;;;;5052945;28;20396;-84
2022/12/23 03:30:58;;;;;;;0.65;0.30;;;;;;;;;;5038632;28;20428;-84
2022/12/23 03:33:29;;;;;;;0.65;0.38;;;;;;;;;;5053152;28;20417;-84
2022/12/23 03:35:57;;;;;;;0.32;0.32;;;;;;;;;;5053774;28;20417;-83
2022/12/23 03:38:24;;;;;;;0.77;0.75;;;;;;;;;;5053872;28;20405;-83
2022/12/23 03:41:02;;;;;;;0.60;0.30;;;;;;;;;;5053807;28;20385;-84
2022/12/23 03:43:29;;;;;;;1.13;0.47;;;;;;;;;;5054078;28;20385;-84
2022/12/23 03:45:58;;;;;;;0.52;0.30;;;;;;;;;;5054095;28;20385;-84
2022/12/23 03:48:29;;;;;;;0.60;0.30;;;;;;;;;;5046670;28;20525;-83
2022/12/23 03:50:57;;;;;;;0.45;0.40;;;;;;;;;;5052500;28;20385;-83
2022/12/23 03:53:42;;;;;;;0.80;0.40;;;;;;;;;;5054010;28;20435;-83
2022/12/23 03:56:16;;;;;;;0.60;0.30;;;;;;;;;;5053793;28;20393;-83
2022/12/23 03:58:44;;;;;;;0.65;0.30;;;;;;;;;;5053849;28;20390;-83
2022/12/23 04:01:19;;;;;;;0.90;0.30;;;;;;;;;;5053525;28;20413;-83
2022/12/23 04:03:55;;;;;;;0.30;0.30;;;;;;;;;;5053778;28;20378;-83
2022/12/23 04:06:23;;;;;;;0.30;0.20;;;;;;;;;;5053711;28;20397;-83
2022/12/23 04:08:50;;;;;;;0.40;0.40;;;;;;;;;;5053539;28;20385;-83
2022/12/23 04:11:16;;;;;;;0.47;0.22;;;;;;;;;;5053626;28;20385;-83
2022/12/23 04:13:42;;;;;;;0.40;0.30;;;;;;;;;;5053655;28;20443;-84
2022/12/23 04:16:08;;;;;;;0.45;0.40;;;;;;;;;;5053384;28;20381;-84
2022/12/23 04:18:34;;;;;;;1.00;0.38;;;;;;;;;;5053305;28;20385;-84
2022/12/23 04:21:00;;;;;;;0.50;0.32;;;;;;;;;;5052434;28;20373;-84
2022/12/23 04:23:26;;;;;;;0.30;0.20;;;;;;;;;;5053462;28;20382;-84
2022/12/23 04:25:52;;;;;;;0.70;0.22;;;;;;;;;;5051607;28;20536;-83
2022/12/23 04:28:19;;;;;;;0.30;0.30;;;;;;;;;;5056120;28;20382;-83
2022/12/23 04:30:45;;;;;;;0.40;0.40;;;;;;;;;;5067288;28;20411;-83
2022/12/23 04:33:11;;;;;;;1.10;0.35;;;;;;;;;;5067130;28;20421;-83
2022/12/23 04:35:37;;;;;;;0.53;0.40;;;;;;;;;;5050438;28;20472;-83
2022/12/23 04:38:03;;;;;;;0.52;0.52;;;;;;;;;;5052663;28;20489;-83
2022/12/23 04:40:29;;;;;;;0.65;0.47;;;;;;;;;;5053051;28;20460;-83
2022/12/23 04:42:55;;;;;;;0.50;0.50;;;;;;;;;;5053070;28;20385;-83
2022/12/23 04:45:21;;;;;;;0.93;0.80;;;;;;;;;;5052844;28;20377;-83
2022/12/23 04:47:47;;;;;;;0.70;0.70;;;;;;;;;;5053017;28;20382;-84
2022/12/23 04:50:14;;;;;;;0.50;0.50;;;;;;;;;;5052572;28;20377;-84
2022/12/23 04:52:40;;;;;;;0.60;0.50;;;;;;;;;;5052811;28;20743;-84
2022/12/23 04:55:06;;;;;;;0.95;0.50;;;;;;;;;;5052832;28;20385;-84
2022/12/23 04:57:32;;;;;;;0.40;0.40;;;;;;;;;;5050772;28;20412;-84
2022/12/23 04:59:58;;;;;;;0.32;0.32;;;;;;;;;;5052506;28;20411;-83
2022/12/23 05:02:24;;;;;;;1.00;0.40;;;;;;;;;;5052599;28;20445;-84
2022/12/23 05:04:50;;;;;;;0.40;0.30;;;;;;;;;;5053799;28;20472;-84
2022/12/23 05:07:16;;;;;;;0.30;0.30;;;;;;;;;;5051933;28;20381;-83
2022/12/23 05:09:42;;;;;;;0.90;0.30;;;;;;;;;;5052371;28;20378;-83
2022/12/23 05:12:08;;;;;;;0.28;0.28;;;;;;;;;;5051587;28;20377;-84
2022/12/23 05:14:34;;;;;;;1.15;0.38;;;;;;;;;;5051763;28;20492;-83
2022/12/23 05:17:00;;;;;;;1.05;0.28;;;;;;;;;;5034203;28;20982;-82
2022/12/23 05:19:26;;;;;;;0.45;0.40;;;;;;;;;;5052239;28;20442;-82
2022/12/23 05:21:52;;;;;;;0.37;0.30;;;;;;;;;;5052046;28;20471;-82
2022/12/23 05:24:18;;;;;;;0.40;0.40;;;;;;;;;;5050163;28;20469;-82
2022/12/23 05:26:46;;;;;;;0.30;0.30;;;;;;;;;;5036170;28;20461;-81
2022/12/23 05:29:12;;;;;;;0.73;0.30;;;;;;;;;;5040142;28;20464;-81
2022/12/23 05:31:38;;;;;;;0.38;0.28;;;;;;;;;;5046533;28;20947;-82
2022/12/23 05:34:04;;;;;;;1.50;0.30;;;;;;;;;;5045971;28;20401;-81
2022/12/23 05:36:30;;;;;;;0.25;0.25;;;;;;;;;;5030882;28;20894;-83
2022/12/23 05:38:56;;;;;;;0.50;0.30;;;;;;;;;;5050453;28;20789;-82
2022/12/23 05:41:23;;;;;;;0.57;0.30;;;;;;;;;;5050683;28;20460;-82
2022/12/23 05:43:49;;;;;;;0.40;0.30;;;;;;;;;;5051018;28;20374;-83
2022/12/23 05:46:15;;;;;;;0.40;0.20;;;;;;;;;;5050680;28;21085;-83
2022/12/23 05:48:41;;;;;;;0.40;0.30;;;;;;;;;;5043775;28;20421;-82
2022/12/23 05:51:06;;;;;;;0.80;0.40;;;;;;;;;;5051803;28;20381;-82
2022/12/23 05:53:33;;;;;;;0.40;0.30;;;;;;;;;;5051776;28;20389;-82
2022/12/23 05:55:58;;;;;;;0.80;0.30;;;;;;;;;;5051740;28;20499;-83
2022/12/23 05:58:26;;;;;;;0.30;0.30;;;;;;;;;;5051746;28;20870;-83
2022/12/23 06:00:52;;;;;;;0.50;0.50;;;;;;;;;;5051342;28;20397;-83
2022/12/23 06:03:18;;;;;;;0.50;0.50;;;;;;;;;;5051695;28;20775;-83
2022/12/23 06:05:44;;;;;;;0.50;0.43;;;;;;;;;;5051635;28;20401;-83
2022/12/23 06:08:10;;;;;;;0.70;0.50;;;;;;;;;;5051524;28;20523;-83
2022/12/23 06:10:36;;;;;;;0.50;0.50;;;;;;;;;;5051562;28;20374;-83
2022/12/23 06:13:02;;;;;;;0.50;0.50;;;;;;;;;;5051580;28;20378;-83
2022/12/23 06:15:28;;;;;;;0.57;0.57;;;;;;;;;;5051448;28;20396;-83
2022/12/23 06:17:55;;;;;;;0.60;0.60;;;;;;;;;;5051457;28;20405;-83
2022/12/23 06:20:21;;;;;;;0.93;0.80;;;;;;;;;;5044985;28;20387;-84
2022/12/23 06:22:47;;;;;;;1.63;0.63;;;;;;;;;;5046149;28;20829;-83
2022/12/23 06:25:13;;;;;;;1.13;0.70;;;;;;;;;;5051541;28;20381;-84
2022/12/23 06:27:39;;;;;;;1.42;0.93;;;;;;;;;;5050951;28;20928;-83
2022/12/23 06:30:05;;;;;;;1.98;0.90;;;;;;;;;;5046151;28;20906;-84
2022/12/23 06:32:31;;;;;;;1.38;0.90;;;;;;;;;;5050551;28;20416;-84
2022/12/23 06:34:57;;;;;;;1.90;1.50;;;;;;;;;;5050941;28;20778;-84
2022/12/23 06:37:23;;;;;;;1.58;1.20;;;;;;;;;;5050890;28;20465;-84
2022/12/23 06:39:49;;;;;;;1.83;1.20;;;;;;;;;;5050806;28;20370;-86
2022/12/23 06:42:15;;;;;;;1.75;1.23;;;;;;;;;;5033307;28;20362;-84
2022/12/23 06:44:41;;;;;;;0.88;0.88;;;;;;;;;;5054036;28;20380;-85
2022/12/23 06:47:07;;;;;;;0.82;0.82;;;;;;;;;;5055172;28;20850;-85
2022/12/23 06:49:33;;;;;;;0.88;0.82;;;;;;;;;;5055075;28;20405;-85
2022/12/23 06:51:59;;;;;;;0.60;0.60;;;;;;;;;;5055173;28;20381;-85
2022/12/23 06:54:25;;;;;;;0.60;0.60;;;;;;;;;;5053270;28;20437;-85
2022/12/23 06:56:51;;;;;;;2.08;1.05;;;;;;;;;;5054899;28;20412;-85
2022/12/23 06:59:17;;;;;;;1.00;0.70;;;;;;;;;;5054582;28;20392;-85
2022/12/23 07:01:43;;;;;;;0.80;0.80;;;;;;;;;;5054265;28;20874;-85
2022/12/23 07:04:09;;;;;;;1.50;1.40;;;;;;;;;;5054621;28;20464;-84
2022/12/23 07:06:35;;;;;;;2.28;2.08;;;;;;;;;;5054870;28;20941;-85
2022/12/23 07:09:01;;;;;;;4.40;4.00;;;;;;;;;;5036156;28;20867;-84
2022/12/23 07:11:27;;;;;;;6.22;5.63;;;;;;;;;;5036768;28;20392;-83
2022/12/23 07:13:53;;;;;;;3.33;3.03;;;;;;;;;;5054696;28;20420;-84
2022/12/23 07:16:19;;;;;;;3.38;3.08;;;;;;;;;;5054453;28;20374;-83
2022/12/23 07:18:45;;;;;;;5.22;3.85;;;;;;;;;;5054331;28;20430;-83
2022/12/23 07:21:11;;;;;;;3.97;3.63;;;;;;;;;;5054505;28;20376;-84
2022/12/23 07:23:37;;;;;;;1.92;1.20;;;;;;;;;;5054464;28;20374;-83
2022/12/23 07:26:03;;;;;;;1.30;0.60;;;;;;;;;;5054534;28;20417;-83
2022/12/23 07:28:29;;;;;;;1.35;1.25;;;;;;;;;;5054390;28;20378;-82
2022/12/23 07:30:55;;;;;;;0.60;0.60;;;;;;;;;;5051569;28;20862;-83
2022/12/23 07:33:21;;;;;;;1.02;0.85;;;;;;;;;;5035769;28;20865;-82
2022/12/23 07:35:47;;;;;;;1.20;1.00;;;;;;;;;;5053843;28;20483;-84
2022/12/23 07:38:13;;;;;;;3.05;2.75;;;;;;;;;;5053512;28;20432;-82
2022/12/23 07:40:38;;;;;;;1.20;1.10;;;;;;;;;;5053732;28;20412;-82
2022/12/23 07:43:04;;;;;;;1.65;0.70;;;;;;;;;;5052308;28;20393;-84
2022/12/23 07:45:30;;;;;;;1.10;0.50;;;;;;;;;;5050139;28;20770;-82
2022/12/23 07:47:57;;;;;;;0.80;0.60;;;;;;;;;;5054104;28;20377;-85
2022/12/23 07:50:24;;;;;;;0.97;0.70;;;;;;;;;;5050085;28;20489;-82
2022/12/23 07:52:51;;;;;;;0.97;0.63;;;;;;;;;;5054008;28;20464;-85
2022/12/23 07:55:17;;;;;;;0.93;0.50;;;;;;;;;;5051893;28;20439;-85
2022/12/23 07:57:43;;;;;;;1.88;0.70;;;;;;;;;;5053766;28;20898;-84
2022/12/23 08:00:11;;;;;;;0.63;0.63;;;;;;;;;;5053519;28;20428;-84
2022/12/23 08:02:37;;;;;;;1.65;0.70;;;;;;;;;;5053818;28;20439;-84
2022/12/23 08:05:03;;;;;;;0.80;0.70;;;;;;;;;;5053802;28;20389;-84
2022/12/23 08:07:29;;;;;;;1.77;0.93;;;;;;;;;;5053548;28;20388;-84
2022/12/23 08:09:55;;;;;;;1.33;0.75;;;;;;;;;;5053610;28;20400;-84
2022/12/23 08:12:21;;;;;;;0.75;0.60;;;;;;;;;;5053663;28;20397;-84
2022/12/23 08:14:51;;;;;;;0.47;0.47;;;;;;;;;;5053582;28;20385;-84
2022/12/23 08:17:17;;;;;;;0.80;0.55;;;;;;;;;;5035774;28;20891;-84
2022/12/23 08:19:43;;;;;;;0.50;0.50;;;;;;;;;;5052119;28;20748;-84
2022/12/23 08:22:09;;;;;;;0.70;0.60;;;;;;;;;;5053168;28;20385;-84
2022/12/23 08:24:35;;;;;;;1.30;0.40;;;;;;;;;;5053440;28;20523;-84
2022/12/23 08:27:01;;;;;;;0.87;0.77;;;;;;;;;;5052333;28;20385;-84
2022/12/23 08:29:27;;;;;;;1.67;0.90;;;;;;;;;;5053050;28;20862;-82
2022/12/23 08:31:54;;;;;;;0.50;0.50;;;;;;;;;;5053148;28;20392;-83
2022/12/23 08:34:20;;;;;;;0.80;0.70;;;;;;;;;;5053162;28;20781;-83
2022/12/23 08:36:47;;;;;;;0.63;0.60;;;;;;;;;;5042877;28;20898;-83
2022/12/23 08:39:13;;;;;;;0.75;0.70;;;;;;;;;;5035530;28;20440;-83
2022/12/23 08:41:40;;;;;;;0.80;0.80;;;;;;;;;;5052923;28;20386;-83
2022/12/23 08:44:07;;;;;;;1.38;1.25;;;;;;;;;;5052400;28;20385;-82
2022/12/23 08:46:33;;;;;;;2.05;1.50;;;;;;;;;;5045684;28;20431;-83
2022/12/23 08:49:00;;;;;;;2.35;0.80;;;;;;;;;;5052857;28;20461;-82
2022/12/23 08:51:26;;;;;;;1.20;0.80;;;;;;;;;;5052806;28;20452;-82
2022/12/23 08:53:55;;;;;;;1.05;0.80;;;;;;;;;;5052789;28;20885;-82
2022/12/23 08:56:22;;;;;;;1.38;0.90;;;;;;;;;;5052598;28;20401;-82
2022/12/23 08:58:49;;;;;;;1.60;1.50;;;;;;;;;;5052628;28;20374;-82
2022/12/23 09:01:17;;;;;;;1.67;1.58;;;;;;;;;;5052470;28;20405;-83
2022/12/23 09:03:43;;;;;;;2.67;2.42;;;;;;;;;;5052624;28;20381;-82
2022/12/23 09:06:11;;;;;;;2.67;2.40;;;;;;;;;;5052114;28;20464;-82
2022/12/23 09:08:37;;;;;;;5.57;5.07;;;;;;;;;;5052367;28;20396;-82
2022/12/23 09:11:03;;;;;;;3.20;2.90;;;;;;;;;;5052326;28;20464;-83
2022/12/23 09:13:30;;;;;;;2.40;2.20;;;;;;;;;;5052490;28;20515;-82
2022/12/23 09:15:55;;;;;;;3.88;3.50;;;;;;;;;;5052323;28;20377;-82
2022/12/23 09:18:21;;;;;;;4.65;3.28;;;;;;;;;;5034399;28;20748;-82
2022/12/23 09:20:47;;;;;;;3.00;2.70;;;;;;;;;;5052159;28;20468;-83
2022/12/23 09:23:13;;;;;;;1.88;1.70;;;;;;;;;;5052234;28;20389;-83
2022/12/23 09:25:40;;;;;;;2.70;2.33;;;;;;;;;;5052250;28;20370;-82
2022/12/23 09:28:06;;;;;;;1.75;1.30;;;;;;;;;;5052169;28;20413;-82
2022/12/23 09:30:32;;;;;;;1.30;1.20;;;;;;;;;;5051956;28;20811;-83
2022/12/23 09:32:58;;;;;;;1.30;1.20;;;;;;;;;;5052137;28;20464;-82
2022/12/23 09:35:24;;;;;;;1.20;1.10;;;;;;;;;;5050202;28;20442;-83
2022/12/23 09:37:50;;;;;;;1.80;0.90;;;;;;;;;;5052001;28;20410;-83
2022/12/23 09:40:19;;;;;;;1.15;1.00;;;;;;;;;;5051830;28;20377;-83
2022/12/23 09:43:00;;;;;;;2.33;2.00;;;;;;;;;;5034310;28;20404;-83
2022/12/23 09:45:32;;;;;;;3.00;2.30;;;;;;;;;;5051670;28;20417;-83
2022/12/23 09:47:58;;;;;;;2.53;2.33;;;;;;;;;;5051890;28;20511;-82
2022/12/23 09:50:28;;;;;;;1.40;1.30;;;;;;;;;;5051627;28;20945;-83
2022/12/23 09:52:54;;;;;;;1.63;1.00;;;;;;;;;;5042559;28;20723;-84
2022/12/23 09:55:21;;;;;;;1.20;1.10;;;;;;;;;;5051774;28;20397;-83
2022/12/23 09:57:51;;;;;;;1.50;1.40;;;;;;;;;;5051671;28;20416;-84
2022/12/23 10:00:18;;;;;;;1.98;1.88;;;;;;;;;;5051319;28;20943;-83
2022/12/23 10:03:03;;;;;;;1.07;1.00;;;;;;;;;;5050873;28;20431;-83
2022/12/23 10:05:38;;;;;;;1.58;1.10;;;;;;;;;;5050788;28;20402;-83
2022/12/23 10:08:12;;;;;;;1.65;1.00;;;;;;;;;;5050741;28;20377;-83
2022/12/23 10:10:53;;;;;;;2.20;1.10;;;;;;;;;;5050686;28;20385;-83
2022/12/23 10:13:22;;;;;;;1.50;0.95;;;;;;;;;;5050758;28;20866;-83
2022/12/23 10:15:50;;;;;;;1.23;0.90;;;;;;;;;;5050621;28;20381;-83
2022/12/23 10:18:37;;;;;;;1.15;0.90;;;;;;;;;;5050923;28;20408;-82
2022/12/23 10:21:06;;;;;;;0.80;0.73;;;;;;;;;;5054298;28;20724;-83
2022/12/23 10:23:36;;;;;;;1.30;1.10;;;;;;;;;;5054241;28;20392;-83
2022/12/23 10:26:29;;;;;;;1.08;0.98;;;;;;;;;;5053900;28;20384;-82
2022/12/23 10:29:15;;;;;;;1.20;1.10;;;;;;;;;;5050142;28;20385;-82
2022/12/23 10:31:55;;;;;;;1.40;1.00;;;;;;;;;;5053966;28;20443;-82
2022/12/23 10:34:41;;;;;;;2.13;1.52;;;;;;;;;;5054152;28;20420;-82
2022/12/23 10:37:26;;;;;;;1.50;1.10;;;;;;;;;;5053576;28;21033;-83
2022/12/23 10:40:01;;;;;;;1.10;1.00;;;;;;;;;;5053765;28;20838;-82
2022/12/23 10:42:35;;;;;;;1.40;1.20;;;;;;;;;;5050379;28;20874;-82
2022/12/23 10:45:09;;;;;;;1.25;1.15;;;;;;;;;;5049836;28;20381;-82
2022/12/23 10:47:54;;;;;;;1.60;1.38;;;;;;;;;;5053905;28;20389;-83
2022/12/23 10:50:19;;;;;;;2.88;1.70;;;;;;;;;;5041289;28;20462;-83
2022/12/23 10:52:45;;;;;;;2.03;1.52;;;;;;;;;;5053608;28;20941;-83
2022/12/23 10:55:32;;;;;;;1.30;1.00;;;;;;;;;;5053830;28;20432;-82
2022/12/23 10:58:03;;;;;;;1.10;1.00;;;;;;;;;;5053671;28;20409;-83
2022/12/23 11:00:29;;;;;;;1.08;1.08;;;;;;;;;;4990850;28;1798050;-83
2022/12/23 11:02:58;;;;;;;3.63;2.90;;;;;;;;;;5054834;28;20952;-83
2022/12/23 11:05:27;;;;;;;2.90;2.60;;;;;;;;;;5054796;28;20393;-83
2022/12/23 11:07:54;;;;;;;1.50;1.13;;;;;;;;;;5054761;28;20889;-82
2022/12/23 11:10:27;;;;;;;1.60;0.80;;;;;;;;;;5054775;28;20381;-83
2022/12/23 11:12:53;;;;;;;0.80;0.70;;;;;;;;;;5055021;28;20826;-83
2022/12/23 11:15:28;;;;;;;0.63;0.63;;;;;;;;;;5055597;28;20378;-82
2022/12/23 11:18:17;;;;;;;1.77;1.20;;;;;;;;;;5056734;28;20462;-83
2022/12/23 11:20:45;;;;;;;1.58;1.40;;;;;;;;;;5041823;28;20382;-82
2022/12/23 11:23:24;;;;;;;1.10;1.00;;;;;;;;;;5036811;28;20421;-83
2022/12/23 11:25:58;;;;;;;1.20;1.10;;;;;;;;;;5054585;28;20873;-83
2022/12/23 11:28:25;;;;;;;0.80;0.80;;;;;;;;;;5054980;28;20432;-83
2022/12/23 11:31:00;;;;;;;1.10;1.00;;;;;;;;;;5034416;28;20408;-82
2022/12/23 11:33:30;;;;;;;1.10;1.00;;;;;;;;;;5050905;28;20499;-82
2022/12/23 11:36:00;;;;;;;1.30;1.10;;;;;;;;;;5054124;28;20439;-83
2022/12/23 11:38:26;;;;;;;1.10;1.00;;;;;;;;;;5050693;28;20413;-83
2022/12/23 11:40:52;;;;;;;1.33;1.05;;;;;;;;;;5053010;28;20504;-83
2022/12/23 11:43:19;;;;;;;1.15;0.70;;;;;;;;;;5052456;28;20848;-82
2022/12/23 11:45:45;;;;;;;1.00;0.60;;;;;;;;;;5046990;28;20410;-84
2022/12/23 11:48:30;;;;;;;0.82;0.75;;;;;;;;;;5048478;28;20380;-83
2022/12/23 11:51:00;;;;;;;1.20;0.90;;;;;;;;;;5050742;28;20480;-83
2022/12/23 11:53:26;;;;;;;0.70;0.70;;;;;;;;;;5046293;28;20873;-82
2022/12/23 11:56:01;;;;;;;0.80;0.80;;;;;;;;;;5053167;28;20392;-82
2022/12/23 11:58:28;;;;;;;0.88;0.70;;;;;;;;;;5053830;28;20405;-83
2022/12/23 12:00:56;;;;;;;0.82;0.75;;;;;;;;;;5053551;28;20548;-86
2022/12/23 12:03:24;;;;;;;1.13;1.02;;;;;;;;;;5053777;28;20397;-85
2022/12/23 12:06:03;;;;;;;1.08;0.80;;;;;;;;;;5044207;28;20394;-86
2022/12/23 12:08:35;;;;;;;1.10;0.68;;;;;;;;;;5044990;28;20877;-86
2022/12/23 12:11:11;;;;;;;0.70;0.68;;;;;;;;;;5052709;28;20382;-85
2022/12/23 12:13:39;;;;;;;0.68;0.50;;;;;;;;;;5053626;28;20382;-85
2022/12/23 12:16:37;;;;;;;1.50;0.60;;;;;;;;;;5053599;28;20377;-86
2022/12/23 12:19:35;;;;;;;0.90;0.90;;;;;;;;;;4995922;28;20386;-86
2022/12/23 12:22:09;;;;;;;2.38;1.70;;;;;;;;;;4998583;28;20389;-84
2022/12/23 12:24:38;;;;;;;1.90;1.50;;;;;;;;;;5052807;28;20417;-86
2022/12/23 12:27:05;;;;;;;0.63;0.60;;;;;;;;;;5040889;28;20811;-84
2022/12/23 12:29:40;;;;;;;0.68;0.47;;;;;;;;;;5041111;28;20954;-84
2022/12/23 12:32:22;;;;;;;0.95;0.95;;;;;;;;;;5050255;28;20389;-85
2022/12/23 12:34:51;;;;;;;0.77;0.70;;;;;;;;;;5033462;28;20529;-85
2022/12/23 12:37:17;;;;;;;0.80;0.80;;;;;;;;;;5038497;28;20506;-85
2022/12/23 12:39:49;;;;;;;1.30;0.88;;;;;;;;;;5041009;28;20523;-86
2022/12/23 12:42:28;;;;;;;0.60;0.50;;;;;;;;;;5028567;28;22142;-85
2022/12/23 12:45:13;;;;;;;0.60;0.60;;;;;;;;;;5052297;28;20878;-85
2022/12/23 12:47:51;;;;;;;0.70;0.70;;;;;;;;;;5051891;28;20378;-85
2022/12/23 12:50:17;;;;;;;0.93;0.60;;;;;;;;;;5051247;28;20501;-84
2022/12/23 12:52:44;;;;;;;0.63;0.60;;;;;;;;;;5038467;28;20387;-84
2022/12/23 12:55:31;;;;;;;0.90;0.90;;;;;;;;;;5041448;28;20896;-84
2022/12/23 12:57:57;;;;;;;0.80;0.77;;;;;;;;;;5046782;28;20445;-84
2022/12/23 13:00:23;;;;;;;0.80;0.70;;;;;;;;;;5051622;28;20421;-85
2022/12/23 13:03:08;;;;;;;0.63;0.63;;;;;;;;;;5051605;28;20392;-85
2022/12/23 13:05:42;;;;;;;0.70;0.55;;;;;;;;;;5051660;28;20453;-85
2022/12/23 13:08:13;;;;;;;0.75;0.70;;;;;;;;;;5051603;28;20382;-85
2022/12/23 13:10:39;;;;;;;0.85;0.85;;;;;;;;;;5044777;28;20390;-86
2022/12/23 13:13:26;;;;;;;1.30;1.00;;;;;;;;;;5047898;28;20747;-85
2022/12/23 13:15:57;;;;;;;1.10;1.00;;;;;;;;;;5001139;28;20727;-85
2022/12/23 13:18:42;;;;;;;0.70;0.63;;;;;;;;;;5051368;28;20433;-85
2022/12/23 13:21:13;;;;;;;0.52;0.50;;;;;;;;;;5033272;28;20727;-86
2022/12/23 13:23:58;;;;;;;1.70;0.70;;;;;;;;;;5051940;28;20382;-85
2022/12/23 13:26:36;;;;;;;1.90;0.70;;;;;;;;;;5051193;28;20515;-84
2022/12/23 13:29:21;;;;;;;1.00;0.60;;;;;;;;;;5051202;28;20416;-85
2022/12/23 13:31:49;;;;;;;1.30;0.80;;;;;;;;;;5050909;28;20392;-85
2022/12/23 13:34:23;;;;;;;1.10;1.00;;;;;;;;;;5051061;28;20381;-84
2022/12/23 13:36:55;;;;;;;1.63;0.70;;;;;;;;;;5043719;28;20419;-85
2022/12/23 13:39:21;;;;;;;0.80;0.70;;;;;;;;;;5033390;28;20397;-85
2022/12/23 13:41:50;;;;;;;0.80;0.60;;;;;;;;;;5050829;28;20858;-83
2022/12/23 13:44:17;;;;;;;1.20;1.10;;;;;;;;;;5045444;28;20391;-83
2022/12/23 13:46:55;;;;;;;1.27;0.82;;;;;;;;;;5041703;28;20378;-82
2022/12/23 13:49:24;;;;;;;1.40;0.90;;;;;;;;;;5038051;28;20385;-83
2022/12/23 13:51:50;;;;;;;1.35;0.77;;;;;;;;;;5031862;28;20379;-84
2022/12/23 13:54:22;;;;;;;1.10;0.63;;;;;;;;;;5034270;28;20450;-83
2022/12/23 13:56:52;;;;;;;1.35;0.90;;;;;;;;;;5034392;28;20503;-83
2022/12/23 13:59:18;;;;;;;0.90;0.80;;;;;;;;;;5042613;28;20397;-84
2022/12/23 14:01:48;;;;;;;0.70;0.70;;;;;;;;;;5033694;28;20478;-83
2022/12/23 14:04:33;;;;;;;0.98;0.82;;;;;;;;;;5047911;28;20461;-84
2022/12/23 14:07:04;;;;;;;1.58;1.20;;;;;;;;;;5051626;28;20383;-85
2022/12/23 14:09:39;;;;;;;1.30;1.05;;;;;;;;;;5051415;28;20416;-84
2022/12/23 14:12:29;;;;;;;0.80;0.70;;;;;;;;;;5051703;28;20420;-87
2022/12/23 14:14:55;;;;;;;1.00;0.70;;;;;;;;;;5038927;28;20401;-85
2022/12/23 14:17:23;;;;;;;0.73;0.73;;;;;;;;;;5051511;28;20425;-87
2022/12/23 14:20:06;;;;;;;0.88;0.80;;;;;;;;;;5051419;28;20385;-88
2022/12/23 14:22:42;;;;;;;1.55;0.90;;;;;;;;;;5051457;28;20378;-86
2022/12/23 14:25:07;;;;;;;1.65;1.40;;;;;;;;;;5051442;28;20377;-86
2022/12/23 14:27:46;;;;;;;1.42;1.33;;;;;;;;;;5051499;28;20451;-86
2022/12/23 14:30:16;;;;;;;1.30;0.90;;;;;;;;;;5051283;28;20419;-86
2022/12/23 14:32:42;;;;;;;1.30;0.90;;;;;;;;;;5048572;28;20381;-85
2022/12/23 14:35:19;;;;;;;1.10;0.70;;;;;;;;;;5050146;28;20373;-85
2022/12/23 14:38:08;;;;;;;0.75;0.75;;;;;;;;;;5050179;28;20413;-86
2022/12/23 14:40:37;;;;;;;0.80;0.73;;;;;;;;;;5051325;28;20382;-85
2022/12/23 14:43:24;;;;;;;1.80;0.70;;;;;;;;;;5051322;28;20385;-85
2022/12/23 14:45:51;;;;;;;0.88;0.70;;;;;;;;;;5051241;28;20369;-87
2022/12/23 14:48:40;;;;;;;0.68;0.68;;;;;;;;;;5051345;28;20922;-86
2022/12/23 14:51:08;;;;;;;1.38;0.80;;;;;;;;;;4998392;28;20377;-86
2022/12/23 14:53:53;;;;;;;1.02;0.93;;;;;;;;;;5033236;28;20389;-87
2022/12/23 14:56:19;;;;;;;0.98;0.90;;;;;;;;;;5051067;28;20382;-87
2022/12/23 14:58:45;;;;;;;1.27;0.70;;;;;;;;;;5051078;28;20416;-86
2022/12/23 15:01:25;;;;;;;1.23;0.77;;;;;;;;;;5050860;28;20462;-87
2022/12/23 15:03:52;;;;;;;1.50;1.20;;;;;;;;;;5051106;28;20372;-84
2022/12/23 15:06:32;;;;;;;1.00;0.88;;;;;;;;;;5054108;28;20420;-86
2022/12/23 15:08:58;;;;;;;1.03;0.80;;;;;;;;;;5047928;28;20370;-85
2022/12/23 15:11:29;;;;;;;1.92;1.38;;;;;;;;;;5054685;28;20413;-86
2022/12/23 15:13:57;;;;;;;1.92;1.42;;;;;;;;;;5054806;28;20462;-85
2022/12/23 15:16:39;;;;;;;1.35;1.25;;;;;;;;;;5054674;28;20374;-87
2022/12/23 15:19:21;;;;;;;0.90;0.90;;;;;;;;;;5054621;28;20440;-88
2022/12/23 15:21:48;;;;;;;1.03;1.03;;;;;;;;;;5054879;28;20362;-88
2022/12/23 15:24:15;;;;;;;1.63;1.50;;;;;;;;;;5054527;28;20466;-86
2022/12/23 15:26:43;;;;;;;1.60;1.50;;;;;;;;;;5054527;28;20377;-87